Time;durP1;ratioP1;P1;durP2;ratioP2;P2;SDS_P1;SDS_P2;PMS_P1;PMS_P2;Temp;Humidity;BMP_temperature;BMP_pressure;BME280_temperature;BME280_humidity;BME280_pressure;Samples;Min_cycle;Max_cycle;Signal;HPM_P1;HPM_P2
2021/07/14 00:02:13;;;;;;;7.57;6.50;;;;;;;28.20;50.79;100767.73;128365;1087;64201;-86
2021/07/14 00:04:49;;;;;;;7.03;6.00;;;;;;;28.20;50.99;100766.89;128365;1087;64198;-86
2021/07/14 00:07:15;;;;;;;7.67;6.40;;;;;;;28.20;50.85;100775.03;128392;1085;64020;-86
2021/07/14 00:09:51;;;;;;;7.60;5.83;;;;;;;28.19;50.95;100771.44;128375;1085;64218;-85
2021/07/14 00:12:22;;;;;;;8.90;6.47;;;;;;;28.19;51.07;100768.73;128388;1087;64227;-85
2021/07/14 00:15:04;;;;;;;7.00;6.00;;;;;;;28.19;51.08;100765.17;128374;1087;64187;-86
2021/07/14 00:17:47;;;;;;;8.40;6.80;;;;;;;28.19;50.83;100765.17;128368;1087;64137;-86
2021/07/14 00:23:25;;;;;;;7.70;6.03;;;;;;;28.18;50.93;100769.73;128361;1087;64147;-86
2021/07/14 00:25:54;;;;;;;7.97;6.57;;;;;;;28.19;51.26;100768.73;128365;1086;64138;-85
2021/07/14 00:28:20;;;;;;;8.50;6.30;;;;;;;28.19;51.13;100765.17;128343;1087;64141;-85
2021/07/14 00:31:01;;;;;;;7.87;6.53;;;;;;;28.19;51.05;100767.89;128370;1086;64170;-86
2021/07/14 00:33:47;;;;;;;7.10;6.10;;;;;;;28.18;50.85;100761.59;128355;1086;64133;-86
2021/07/14 00:36:14;;;;;;;7.23;6.00;;;;;;;28.18;50.96;100763.47;128351;1084;64134;-86
2021/07/14 00:38:48;;;;;;;9.63;6.43;;;;;;;28.19;51.11;100770.60;128372;1087;64143;-85
2021/07/14 00:41:18;;;;;;;8.37;6.30;;;;;;;28.18;50.96;100769.73;128367;1086;63952;-85
2021/07/14 00:43:44;;;;;;;7.53;6.60;;;;;;;28.18;51.00;100771.61;128399;1087;64144;-85
2021/07/14 00:46:25;;;;;;;8.30;6.47;;;;;;;28.18;50.96;100769.73;128352;1087;64186;-85
2021/07/14 00:49:00;;;;;;;8.77;6.47;;;;;;;28.18;51.01;100766.17;128370;1087;64176;-85
2021/07/14 00:51:27;;;;;;;7.67;6.30;;;;;;;28.18;50.92;100768.89;128354;1087;64157;-85
2021/07/14 00:54:10;;;;;;;7.03;6.30;;;;;;;28.17;51.13;100770.77;128346;1087;64155;-85
2021/07/14 00:56:40;;;;;;;7.00;6.30;;;;;;;28.18;51.18;100771.61;128399;1085;64381;-85
2021/07/14 00:59:21;;;;;;;7.47;6.23;;;;;;;28.17;51.38;100765.34;128359;1087;64295;-86
2021/07/14 01:01:48;;;;;;;8.70;6.50;;;;;;;28.17;51.44;100759.91;128386;1086;64218;-86
2021/07/14 01:04:32;;;;;;;7.17;6.43;;;;;;;28.18;51.52;100760.75;128364;1087;64701;-86
2021/07/14 01:07:15;;;;;;;7.35;6.05;;;;;;;28.16;51.09;100760.91;128359;1087;64144;-86
2021/07/14 01:09:56;;;;;;;7.63;6.10;;;;;;;28.17;51.16;100768.05;128384;1086;64146;-86
2021/07/14 01:12:31;;;;;;;7.03;6.33;;;;;;;28.16;51.46;100777.20;128388;1087;64150;-86
2021/07/14 01:15:08;;;;;;;7.20;6.43;;;;;;;28.16;51.16;100768.18;128364;1087;64137;-86
2021/07/14 01:18:01;;;;;;;8.67;6.50;;;;;;;28.15;51.25;100764.63;128388;1087;64099;-86
2021/07/14 01:20:55;;;;;;;8.20;6.20;;;;;;;28.16;51.59;100763.63;128341;1085;64124;-86
2021/07/14 01:24:20;;;;;;;7.53;6.30;;;;;;;28.14;51.28;100757.48;128384;1087;64260;-86
2021/07/14 01:27:11;;;;;;;7.37;6.57;;;;;;;28.14;51.48;100765.63;127707;1090;64144;-86
2021/07/14 01:30:19;;;;;;;6.80;5.93;;;;;;;28.15;51.51;100777.36;127688;1090;64141;-87
2021/07/14 01:32:55;;;;;;;7.23;6.50;;;;;;;28.15;51.42;100763.78;127766;1089;64144;-86
2021/07/14 01:35:25;;;;;;;7.03;6.33;;;;;;;28.15;51.35;100766.50;127711;1090;64151;-85
2021/07/14 01:37:55;;;;;;;6.67;5.93;;;;;;;28.15;51.25;100774.64;127696;1092;64227;-86
2021/07/14 01:40:24;;;;;;;7.43;6.20;;;;;;;28.16;51.36;100779.91;127710;1088;64137;-86
2021/07/14 01:42:55;;;;;;;6.90;6.07;;;;;;;28.15;51.71;100780.91;127697;1090;62289;-86
2021/07/14 01:45:27;;;;;;;7.80;6.10;;;;;;;28.16;51.84;100782.63;127751;1090;64284;-86
2021/07/14 01:47:55;;;;;;;7.70;6.50;;;;;;;28.15;51.75;100780.91;127677;1090;64311;-85
2021/07/14 01:50:23;;;;;;;7.83;6.20;;;;;;;28.15;51.75;100778.20;127706;1090;62861;-86
2021/07/14 01:52:54;;;;;;;8.30;6.27;;;;;;;28.15;51.76;100772.77;127733;1090;61724;-85
2021/07/14 01:55:21;;;;;;;6.97;6.17;;;;;;;28.15;51.30;100777.36;127706;1090;64690;-85
2021/07/14 01:57:57;;;;;;;7.83;6.47;;;;;;;28.14;51.43;100779.20;127693;1090;64205;-85
2021/07/14 02:00:29;;;;;;;7.30;6.30;;;;;;;28.14;51.53;100779.20;127694;1087;64221;-85
2021/07/14 02:03:28;;;;;;;;;;;;;;;;;;;;;
2021/07/14 02:06:04;;;;;;;7.30;6.00;;;;;;;28.13;51.44;100774.80;128413;1087;64147;-86
2021/07/14 02:08:36;;;;;;;7.60;6.30;;;;;;;28.14;51.81;100781.91;128394;1085;64022;-86
2021/07/14 02:11:03;;;;;;;7.57;6.30;;;;;;;28.14;51.55;100775.64;128369;1086;64152;-85
2021/07/14 02:13:30;;;;;;;8.13;6.53;;;;;;;28.13;51.77;100780.23;128366;1087;64217;-85
2021/07/14 02:15:58;;;;;;;8.13;6.53;;;;;;;28.14;51.85;100781.08;128416;1087;64265;-86
2021/07/14 02:18:26;;;;;;;6.70;6.03;;;;;;;28.14;51.91;100781.08;128346;1087;64153;-86
2021/07/14 02:20:58;;;;;;;7.23;6.40;;;;;;;28.13;51.74;100780.23;128372;1086;64138;-86
2021/07/14 02:23:27;;;;;;;7.43;6.63;;;;;;;28.12;51.69;100781.23;128316;1087;64342;-86
2021/07/14 02:25:54;;;;;;;7.60;6.40;;;;;;;28.12;51.51;100783.95;128372;1087;64108;-85
2021/07/14 02:28:20;;;;;;;7.30;6.50;;;;;;;28.12;51.49;100775.81;128377;1087;64099;-85
2021/07/14 02:30:48;;;;;;;8.13;6.70;;;;;;;28.12;51.82;100781.23;128361;1087;64157;-84
2021/07/14 02:33:16;;;;;;;6.60;5.87;;;;;;;28.13;51.61;100776.65;128369;1085;64587;-86
2021/07/14 02:35:48;;;;;;;8.00;6.47;;;;;;;28.12;51.76;100789.38;128418;1086;64215;-85
2021/07/14 02:38:23;;;;;;;8.10;6.53;;;;;;;28.12;51.93;100785.79;128344;1087;64226;-86
2021/07/14 02:41:18;;;;;;;8.03;6.70;;;;;;;28.12;51.99;100783.95;128390;1085;64102;-86
2021/07/14 02:43:50;;;;;;;9.60;6.53;;;;;;;28.11;51.79;100787.66;128383;1087;64272;-85
2021/07/14 02:46:27;;;;;;;7.33;6.30;;;;;;;28.11;51.96;100787.66;128362;1087;64076;-85
2021/07/14 02:49:02;;;;;;;7.77;6.30;;;;;;;28.11;52.04;100784.11;128372;1087;64285;-85
2021/07/14 02:51:29;;;;;;;8.20;6.37;;;;;;;28.12;51.65;100785.79;128332;1087;64135;-85
2021/07/14 02:53:59;;;;;;;7.27;6.10;;;;;;;28.11;52.10;100790.38;128191;1086;64179;-85
2021/07/14 02:56:26;;;;;;;8.53;6.60;;;;;;;28.11;51.96;100790.38;128206;1087;64301;-85
2021/07/14 02:58:54;;;;;;;7.50;6.27;;;;;;;28.12;51.80;100796.64;128227;1087;63968;-85
2021/07/14 03:01:21;;;;;;;7.00;6.08;;;;;;;28.12;52.05;100791.22;127990;1087;64623;-85
2021/07/14 03:03:51;;;;;;;7.95;6.40;;;;;;;28.12;51.91;100802.95;128220;1087;64112;-85
2021/07/14 03:06:18;;;;;;;8.00;6.67;;;;;;;28.13;51.79;100792.93;128219;1085;64141;-85
2021/07/14 03:08:47;;;;;;;7.27;6.27;;;;;;;28.13;52.02;100791.09;128208;1086;64285;-83
2021/07/14 03:11:13;;;;;;;6.83;6.10;;;;;;;28.13;52.00;100791.09;128361;1085;64047;-85
2021/07/14 03:13:39;;;;;;;8.63;6.63;;;;;;;28.14;52.16;100789.22;128272;1087;64313;-86
2021/07/14 03:16:07;;;;;;;8.20;6.30;;;;;;;28.14;51.92;100794.64;128230;1087;64271;-85
2021/07/14 03:18:33;;;;;;;7.13;6.43;;;;;;;28.14;51.80;100795.48;128168;1087;64064;-86
2021/07/14 03:21:01;;;;;;;7.50;6.50;;;;;;;28.15;52.04;100790.92;128239;1086;64146;-85
2021/07/14 03:23:32;;;;;;;7.27;6.27;;;;;;;28.15;52.26;100793.64;128405;1085;64096;-83
2021/07/14 03:25:59;;;;;;;7.03;6.33;;;;;;;28.15;52.00;100791.77;128255;1085;64188;-83
2021/07/14 03:28:31;;;;;;;7.87;6.50;;;;;;;28.16;51.90;100790.77;128291;1087;64177;-86
2021/07/14 03:31:01;;;;;;;6.73;6.03;;;;;;;28.16;51.99;100796.19;128352;1087;64137;-84
2021/07/14 03:33:32;;;;;;;7.10;6.40;;;;;;;28.16;52.14;100790.77;128382;1087;64361;-85
2021/07/14 03:36:00;;;;;;;6.70;5.87;;;;;;;28.15;52.00;100794.48;128393;1085;64224;-85
2021/07/14 03:38:34;;;;;;;7.03;6.30;;;;;;;28.14;52.13;100800.91;128393;1087;64124;-86
2021/07/14 03:41:03;;;;;;;8.07;6.67;;;;;;;28.15;51.98;100805.34;128367;1087;64180;-85
2021/07/14 03:43:29;;;;;;;8.13;6.27;;;;;;;28.16;51.86;100808.89;128369;1087;64025;-86
2021/07/14 03:45:55;;;;;;;8.40;6.77;;;;;;;28.15;51.91;100799.06;128384;1087;64240;-86
2021/07/14 03:48:24;;;;;;;8.38;6.48;;;;;;;28.15;52.01;100807.21;128331;1086;64162;-86
2021/07/14 03:50:55;;;;;;;7.53;6.50;;;;;;;28.14;51.91;100805.50;128366;1087;64214;-86
2021/07/14 03:53:23;;;;;;;7.07;5.97;;;;;;;28.14;52.16;100808.21;128370;1086;64099;-86
2021/07/14 03:55:53;;;;;;;7.00;6.30;;;;;;;28.13;52.25;100811.92;128393;1087;64144;-86
2021/07/14 03:58:31;;;;;;;7.80;6.90;;;;;;;28.11;52.23;100809.38;128382;1087;64260;-86
2021/07/14 04:01:00;;;;;;;9.93;7.40;;;;;;;28.12;51.91;100813.80;128376;1087;64155;-85
2021/07/14 04:03:27;;;;;;;11.37;7.97;;;;;;;28.11;51.83;100819.39;128364;1086;64189;-86
2021/07/14 04:05:56;;;;;;;9.10;7.73;;;;;;;28.11;52.29;100816.67;128404;1087;64104;-86
2021/07/14 04:08:26;;;;;;;10.63;7.98;;;;;;;28.11;52.04;100813.96;128423;1087;64230;-86
2021/07/14 04:10:53;;;;;;;8.47;6.93;;;;;;;28.11;52.06;100824.81;128400;1087;64206;-86
2021/07/14 04:13:21;;;;;;;8.87;7.57;;;;;;;28.09;51.96;100825.81;128361;1087;64247;-86
2021/07/14 04:16:08;;;;;;;11.73;7.80;;;;;;;28.10;51.80;100829.38;128381;1087;64077;-86
2021/07/14 04:18:40;;;;;;;10.23;8.03;;;;;;;28.10;51.82;100829.38;128371;1087;64144;-85
2021/07/14 04:21:27;;;;;;;9.80;7.80;;;;;;;28.11;51.81;100836.52;128373;1087;64121;-86
2021/07/14 04:23:53;;;;;;;9.90;8.13;;;;;;;28.11;51.95;100828.37;128392;1087;64141;-86
2021/07/14 04:26:20;;;;;;;8.73;7.77;;;;;;;28.11;52.02;100835.67;128358;1087;64256;-86
2021/07/14 04:28:58;;;;;;;13.30;8.20;;;;;;;28.12;51.82;100838.22;128406;1085;64064;-86
2021/07/14 04:31:24;;;;;;;11.50;8.50;;;;;;;28.11;51.96;100841.94;128333;1087;64108;-86
2021/07/14 04:33:55;;;;;;;11.43;8.17;;;;;;;28.11;51.85;100839.22;128357;1087;64291;-86
2021/07/14 04:36:22;;;;;;;13.43;8.83;;;;;;;28.12;51.90;100849.08;128371;1085;64096;-85
2021/07/14 04:38:56;;;;;;;11.20;7.97;;;;;;;28.12;51.95;100851.79;128390;1087;64279;-86
2021/07/14 04:41:31;;;;;;;10.90;8.20;;;;;;;28.13;51.92;100856.22;128021;1087;64146;-85
2021/07/14 04:44:03;;;;;;;10.87;8.60;;;;;;;28.14;52.04;100859.77;128340;1085;64285;-86
2021/07/14 04:46:39;;;;;;;9.80;8.57;;;;;;;28.14;51.78;100859.77;128378;1085;63971;-86
2021/07/14 04:49:11;;;;;;;9.63;8.30;;;;;;;28.15;51.94;100870.47;128372;1087;63939;-86
2021/07/14 04:51:38;;;;;;;9.70;8.15;;;;;;;28.15;51.80;100869.63;128325;1087;64105;-86
2021/07/14 04:54:05;;;;;;;12.53;8.70;;;;;;;28.16;51.69;100872.19;128357;1087;64153;-86
2021/07/14 04:56:34;;;;;;;11.87;8.50;;;;;;;28.16;51.87;100869.47;128376;1086;64715;-86
2021/07/14 04:59:02;;;;;;;14.23;8.60;;;;;;;28.17;51.78;100867.59;128326;1086;64134;-86
2021/07/14 05:01:28;;;;;;;11.87;8.73;;;;;;;28.17;51.68;100876.61;128274;1086;64102;-86
2021/07/14 05:03:54;;;;;;;11.10;8.70;;;;;;;28.18;51.46;100874.73;128283;1087;64244;-85
2021/07/14 05:06:21;;;;;;;9.87;8.77;;;;;;;28.19;51.82;100884.59;128333;1086;62016;-84
2021/07/14 05:08:47;;;;;;;10.27;8.43;;;;;;;28.20;51.61;100894.45;128310;1087;64141;-85
2021/07/14 05:11:14;;;;;;;10.17;8.97;;;;;;;28.21;51.65;100890.70;128285;1085;64144;-85
2021/07/14 05:13:41;;;;;;;9.90;8.37;;;;;;;28.22;51.44;100900.55;128281;1087;64155;-85
2021/07/14 05:16:11;;;;;;;11.43;8.93;;;;;;;28.22;51.61;100898.69;128379;1087;64134;-85
2021/07/14 05:18:38;;;;;;;10.93;8.73;;;;;;;28.23;51.69;100894.13;128346;1087;64134;-85
2021/07/14 05:21:05;;;;;;;12.30;8.97;;;;;;;28.23;51.82;100891.41;128375;1087;64144;-85
2021/07/14 05:23:31;;;;;;;12.13;8.97;;;;;;;28.24;51.66;100899.39;128367;1085;63318;-85
2021/07/14 05:25:59;;;;;;;10.30;9.03;;;;;;;28.25;51.20;100898.39;128356;1087;64243;-85
2021/07/14 05:28:45;;;;;;;10.73;8.97;;;;;;;28.26;51.28;100897.39;128377;1086;64173;-85
2021/07/14 05:31:21;;;;;;;11.03;8.90;;;;;;;28.26;51.55;100908.25;128315;1087;64106;-85
2021/07/14 05:33:48;;;;;;;9.47;8.47;;;;;;;28.29;51.64;100914.36;128346;1087;64556;-85
2021/07/14 05:36:38;;;;;;;;;;;;;;;28.28;51.69;100913.52;128413;1086;64032;-85
2021/07/14 05:39:10;;;;;;;;;;;;;;;28.27;51.33;100911.81;128052;1087;64102;-84
2021/07/14 05:41:41;;;;;;;12.07;9.47;;;;;;;28.28;51.26;100912.66;128368;1087;64131;-86
2021/07/14 05:44:19;;;;;;;11.23;8.10;;;;;;;28.29;51.52;100911.65;128378;1087;63403;-86
2021/07/14 05:46:50;;;;;;;10.73;9.30;;;;;;;28.30;51.38;100911.48;128370;1087;64135;-87
2021/07/14 05:49:19;;;;;;;10.57;9.30;;;;;;;28.31;51.48;100910.48;128384;1087;64757;-85
2021/07/14 05:51:47;;;;;;;12.13;9.13;;;;;;;28.33;51.37;100913.05;128366;1086;64130;-86
2021/07/14 05:54:13;;;;;;;12.10;9.30;;;;;;;28.34;51.47;100909.33;128348;1086;64220;-86
2021/07/14 05:56:49;;;;;;;10.97;9.27;;;;;;;28.34;51.20;100915.59;128341;1087;64183;-85
2021/07/14 05:59:15;;;;;;;10.67;9.13;;;;;;;28.36;51.33;100910.01;128370;1087;64214;-86
2021/07/14 06:01:41;;;;;;;13.10;9.43;;;;;;;28.37;51.04;100914.44;128367;1087;64662;-86
2021/07/14 06:04:11;;;;;;;11.13;9.03;;;;;;;28.38;50.98;100924.30;128334;1085;64246;-85
2021/07/14 06:06:37;;;;;;;12.20;9.20;;;;;;;28.39;51.19;100926.01;128265;1087;64185;-85
2021/07/14 06:09:06;;;;;;;12.27;9.90;;;;;;;28.40;51.23;100925.01;128332;1087;64282;-85
2021/07/14 06:11:32;;;;;;;11.40;9.47;;;;;;;28.40;51.46;100922.30;128337;1087;64102;-85
2021/07/14 06:14:02;;;;;;;12.80;9.50;;;;;;;28.42;51.02;100925.69;128265;1085;64144;-85
2021/07/14 06:16:32;;;;;;;11.90;9.33;;;;;;;28.42;51.07;100917.54;128409;1087;64238;-86
2021/07/14 06:18:59;;;;;;;12.03;9.57;;;;;;;28.42;51.02;100928.41;128363;1087;64096;-85
2021/07/14 06:21:26;;;;;;;10.70;9.13;;;;;;;28.43;50.96;100924.69;128387;1087;64137;-85
2021/07/14 06:23:57;;;;;;;9.80;7.97;;;;;;;28.44;51.08;100926.40;128378;1087;64183;-86
2021/07/14 06:26:25;;;;;;;11.33;8.63;;;;;;;28.45;51.19;100930.80;128355;1086;64469;-86
2021/07/14 06:28:52;;;;;;;11.60;9.47;;;;;;;28.45;50.83;100925.37;128357;1087;64099;-85
2021/07/14 06:31:20;;;;;;;10.97;9.10;;;;;;;28.47;50.79;100925.23;128373;1087;64249;-85
2021/07/14 06:33:47;;;;;;;11.97;8.93;;;;;;;28.47;50.84;100931.52;128290;1087;64568;-85
2021/07/14 06:36:22;;;;;;;12.67;9.27;;;;;;;28.48;50.82;100924.20;128267;1087;64099;-84
2021/07/14 06:38:48;;;;;;;10.70;9.40;;;;;;;28.48;51.18;100930.51;128235;1085;63951;-85
2021/07/14 06:41:18;;;;;;;12.87;9.57;;;;;;;28.50;50.74;100935.78;128303;1086;64147;-84
2021/07/14 06:43:54;;;;;;;10.95;9.45;;;;;;;28.49;50.86;100929.47;128293;1086;64265;-85
2021/07/14 06:46:20;;;;;;;;;;;;;;;28.50;51.11;100930.34;128361;1086;64160;-84
2021/07/14 06:48:49;;;;;;;10.63;9.40;;;;;;;28.50;50.87;100924.91;128300;1086;64288;-85
2021/07/14 06:51:16;;;;;;;11.87;9.50;;;;;;;28.50;51.00;100925.76;128364;1087;64205;-86
2021/07/14 06:53:43;;;;;;;11.97;9.60;;;;;;;28.51;50.92;100924.75;128358;1086;64307;-85
2021/07/14 06:56:13;;;;;;;11.47;8.90;;;;;;;28.52;51.05;100922.88;128363;1087;64124;-85
2021/07/14 06:58:40;;;;;;;10.97;9.30;;;;;;;28.53;51.10;100919.16;128337;1086;64131;-85
2021/07/14 07:01:07;;;;;;;10.50;8.90;;;;;;;28.53;50.64;100913.73;128338;1087;64176;-85
2021/07/14 07:03:34;;;;;;;10.53;8.90;;;;;;;28.54;50.71;100920.88;128323;1087;64370;-85
2021/07/14 07:06:02;;;;;;;11.07;8.30;;;;;;;28.54;50.64;100912.73;128353;1085;64297;-86
2021/07/14 07:08:29;;;;;;;9.90;8.90;;;;;;;28.54;50.70;100915.45;128285;1087;64176;-85
2021/07/14 07:10:55;;;;;;;10.10;9.00;;;;;;;28.54;50.70;100913.57;128336;1086;64208;-86
2021/07/14 07:13:22;;;;;;;15.67;8.97;;;;;;;28.54;51.05;100910.02;128360;1087;64139;-85
2021/07/14 07:15:49;;;;;;;11.93;8.73;;;;;;;28.55;50.49;100914.45;128371;1085;64208;-86
2021/07/14 07:18:21;;;;;;;12.50;9.47;;;;;;;28.54;50.46;100913.57;128337;1086;64281;-85
2021/07/14 07:20:48;;;;;;;13.63;9.87;;;;;;;28.54;50.69;100919.00;128360;1085;64166;-86
2021/07/14 07:23:15;;;;;;;10.47;8.57;;;;;;;28.54;50.64;100908.14;128342;1086;64073;-86
2021/07/14 07:25:42;;;;;;;10.70;8.57;;;;;;;28.54;50.83;100916.29;128371;1086;64134;-85
2021/07/14 07:28:18;;;;;;;10.80;9.67;;;;;;;28.54;50.61;100913.57;128338;1087;64195;-86
2021/07/14 07:30:54;;;;;;;10.63;9.10;;;;;;;28.54;50.44;100918.16;128384;1087;64208;-85
2021/07/14 07:33:21;;;;;;;11.60;9.27;;;;;;;28.53;50.79;100917.32;128364;1087;64134;-85
2021/07/14 07:35:57;;;;;;;13.13;9.50;;;;;;;28.53;50.42;100920.03;128371;1087;64147;-86
2021/07/14 07:38:23;;;;;;;10.67;9.30;;;;;;;28.53;50.31;100909.17;128371;1087;63942;-86
2021/07/14 07:40:54;;;;;;;10.43;9.00;;;;;;;28.53;50.42;100911.89;128341;1087;64179;-85
2021/07/14 07:43:29;;;;;;;12.30;9.55;;;;;;;28.53;50.26;100913.73;128328;1087;64169;-86
2021/07/14 07:45:57;;;;;;;11.13;9.43;;;;;;;28.53;50.08;100911.02;128366;1087;64162;-86
2021/07/14 07:48:25;;;;;;;10.43;9.20;;;;;;;28.53;49.98;100913.73;128020;1087;64099;-86
2021/07/14 07:50:54;;;;;;;11.60;9.03;;;;;;;28.53;50.05;100911.02;128335;1087;64165;-86
2021/07/14 07:53:24;;;;;;;10.80;8.60;;;;;;;28.53;50.31;100919.16;128347;1087;64189;-86
2021/07/14 07:55:51;;;;;;;10.57;8.40;;;;;;;28.52;50.05;100915.61;128370;1086;64131;-86
2021/07/14 07:58:17;;;;;;;10.10;9.00;;;;;;;28.52;49.96;100912.89;128331;1086;64594;-86
2021/07/14 08:00:46;;;;;;;11.45;8.55;;;;;;;28.52;49.80;100909.30;128397;1087;64221;-86
2021/07/14 08:03:13;;;;;;;9.60;8.07;;;;;;;28.53;49.81;100909.17;128312;1086;64131;-85
2021/07/14 08:05:40;;;;;;;10.07;8.50;;;;;;;28.52;49.59;100906.59;128199;1087;64186;-85
2021/07/14 08:08:07;;;;;;;11.33;8.55;;;;;;;28.52;49.80;100906.59;128324;1087;64150;-86
2021/07/14 08:10:33;;;;;;;9.37;8.27;;;;;;;28.52;49.69;100904.75;128322;1087;64131;-88
2021/07/14 08:13:02;;;;;;;11.30;8.57;;;;;;;28.53;49.38;100908.30;128344;1086;64319;-86
2021/07/14 08:15:28;;;;;;;;;;;;;;;28.51;49.42;100905.75;128405;1086;64150;-86
2021/07/14 08:17:55;;;;;;;10.07;8.47;;;;;;;28.51;49.74;100911.18;128365;1087;64134;-86
2021/07/14 08:20:30;;;;;;;10.43;8.17;;;;;;;28.51;49.65;100897.60;128352;1086;64213;-86
2021/07/14 08:22:57;;;;;;;10.00;8.60;;;;;;;28.51;49.45;100903.03;128267;1087;65720;-85
2021/07/14 08:25:23;;;;;;;12.27;8.30;;;;;;;28.52;49.46;100901.16;128333;1087;64176;-85
2021/07/14 08:27:49;;;;;;;8.67;7.77;;;;;;;28.52;49.34;100896.59;128318;1087;64163;-86
2021/07/14 08:30:17;;;;;;;9.20;7.83;;;;;;;28.51;49.49;100903.03;128343;1087;64073;-85
2021/07/14 08:32:46;;;;;;;9.30;7.90;;;;;;;28.53;49.25;100903.74;128300;1087;64370;-85
2021/07/14 08:35:12;;;;;;;9.85;7.55;;;;;;;28.52;49.16;100893.88;128344;1087;64099;-85
2021/07/14 08:37:39;;;;;;;8.57;7.57;;;;;;;28.52;49.23;100893.88;128329;1086;64211;-85
2021/07/14 08:40:06;;;;;;;8.43;7.43;;;;;;;28.53;48.94;100900.16;128338;1087;64275;-85
2021/07/14 08:42:35;;;;;;;10.10;8.13;;;;;;;28.52;48.99;100898.44;128378;1087;64298;-85
2021/07/14 08:45:08;;;;;;;9.33;8.33;;;;;;;28.54;48.97;100901.87;128391;1087;64626;-85
2021/07/14 08:47:34;;;;;;;10.37;8.27;;;;;;;28.53;48.78;100901.03;128364;1087;64042;-85
2021/07/14 08:50:01;;;;;;;10.17;7.70;;;;;;;28.52;48.70;100891.17;128329;1087;64141;-86
2021/07/14 08:52:49;;;;;;;9.23;7.83;;;;;;;28.53;48.54;100897.44;128216;1087;64150;-85
2021/07/14 08:55:16;;;;;;;8.93;7.53;;;;;;;28.52;48.83;100893.88;128252;1087;64182;-86
2021/07/14 08:57:43;;;;;;;10.17;7.77;;;;;;;28.53;48.68;100892.01;128326;1087;64243;-84
2021/07/14 09:00:12;;;;;;;9.00;7.57;;;;;;;28.54;48.59;100891.00;128295;1085;64137;-84
2021/07/14 09:02:39;;;;;;;10.70;7.50;;;;;;;28.54;48.36;100894.56;128328;1087;65393;-85
2021/07/14 09:05:08;;;;;;;10.57;8.00;;;;;;;28.54;48.42;100899.99;128331;1086;64147;-85
2021/07/14 09:07:38;;;;;;;9.63;7.90;;;;;;;28.54;48.52;100897.28;128279;1087;64333;-84
2021/07/14 09:10:09;;;;;;;10.80;8.53;;;;;;;28.54;48.57;100899.99;128323;1086;64176;-83
2021/07/14 09:12:45;;;;;;;12.93;8.07;;;;;;;28.56;48.10;100899.83;128285;1085;64281;-84
2021/07/14 09:15:13;;;;;;;10.33;7.63;;;;;;;28.55;48.44;100892.72;128340;1087;63948;-85
2021/07/14 09:17:47;;;;;;;11.25;7.90;;;;;;;28.55;48.32;100896.27;128306;1087;64202;-85
2021/07/14 09:20:26;;;;;;;8.83;7.93;;;;;;;28.55;48.06;100896.27;128294;1085;64150;-84
2021/07/14 09:23:25;;;;;;;10.40;8.03;;;;;;;28.55;48.11;100900.87;128387;1087;65338;-86
2021/07/14 09:26:02;;;;;;;9.00;8.07;;;;;;;28.55;48.14;100901.70;127948;1088;64141;-86
2021/07/14 09:28:34;;;;;;;10.37;8.23;;;;;;;28.55;47.88;100895.44;127933;1087;64639;-86
2021/07/14 09:31:09;;;;;;;9.27;7.73;;;;;;;28.54;47.78;100899.99;127897;1087;64200;-86
2021/07/14 09:33:36;;;;;;;9.97;7.83;;;;;;;28.54;48.01;100899.99;127888;1087;64144;-85
2021/07/14 09:36:04;;;;;;;9.10;7.75;;;;;;;28.55;47.56;100900.87;127920;1087;64562;-85
2021/07/14 09:38:40;;;;;;;10.63;7.63;;;;;;;28.54;47.84;100901.87;127895;1087;64163;-85
2021/07/14 09:41:13;;;;;;;9.73;7.70;;;;;;;28.53;47.68;100902.88;127898;1087;64147;-85
2021/07/14 09:43:43;;;;;;;9.57;7.70;;;;;;;28.53;47.53;100908.30;127905;1087;64275;-85
2021/07/14 09:46:11;;;;;;;9.20;7.83;;;;;;;28.53;47.72;100902.88;127919;1087;64145;-85
2021/07/14 09:48:49;;;;;;;9.07;7.30;;;;;;;28.52;47.84;100893.88;127886;1087;63936;-85
2021/07/14 09:51:22;;;;;;;9.37;7.83;;;;;;;28.53;47.44;100897.44;127903;1087;64198;-85
2021/07/14 09:53:52;;;;;;;10.53;7.60;;;;;;;28.52;47.43;100888.45;127902;1087;64141;-85
2021/07/14 09:56:39;;;;;;;8.77;7.40;;;;;;;28.53;47.78;100886.58;127882;1087;64257;-85
2021/07/14 09:59:10;;;;;;;10.33;7.70;;;;;;;28.52;47.39;100888.45;127698;1087;64619;-86
2021/07/14 10:01:50;;;;;;;9.93;7.90;;;;;;;28.52;47.36;100893.88;127767;1087;64179;-85
2021/07/14 10:04:27;;;;;;;11.10;7.90;;;;;;;28.52;47.67;100891.17;127881;1085;64166;-85
2021/07/14 10:07:17;;;;;;;12.03;7.70;;;;;;;28.53;47.78;100883.86;128206;1087;64125;-85
2021/07/14 10:09:44;;;;;;;9.37;8.13;;;;;;;28.53;47.33;100889.30;128195;1085;64166;-85
2021/07/14 10:12:28;;;;;;;9.47;7.63;;;;;;;28.53;47.28;100890.16;128182;1086;64172;-85
2021/07/14 10:14:59;;;;;;;10.50;8.83;;;;;;;28.53;47.44;100892.01;128200;1085;64134;-85
2021/07/14 10:17:39;;;;;;;12.20;8.40;;;;;;;28.53;47.43;100882.02;128297;1087;64508;-85
2021/07/14 10:20:31;;;;;;;9.40;8.40;;;;;;;28.53;47.28;100876.59;128514;1085;61877;-86
2021/07/14 10:22:59;;;;;;;10.30;8.03;;;;;;;28.54;47.35;100877.42;128271;1086;64195;-86
2021/07/14 10:25:26;;;;;;;10.35;8.30;;;;;;;28.53;47.27;100871.16;128347;1087;64166;-85
2021/07/14 10:28:03;;;;;;;10.50;8.37;;;;;;;28.53;47.26;100873.88;128386;1087;64220;-85
2021/07/14 10:30:30;;;;;;;10.10;8.37;;;;;;;28.54;47.31;100869.28;128379;1086;64025;-86
2021/07/14 10:32:56;;;;;;;10.67;7.93;;;;;;;28.53;47.24;100870.28;128371;1087;64141;-85
2021/07/14 10:35:25;;;;;;;10.37;7.93;;;;;;;28.53;47.21;100870.28;128034;1087;64330;-86
2021/07/14 10:37:53;;;;;;;9.80;8.03;;;;;;;28.53;47.12;100876.59;128428;1087;64127;-85
2021/07/14 10:40:21;;;;;;;12.15;8.35;;;;;;;28.53;47.04;100873.88;128377;1085;64188;-85
2021/07/14 10:42:51;;;;;;;11.00;8.47;;;;;;;28.53;47.53;100864.85;128384;1087;64096;-85
2021/07/14 10:45:18;;;;;;;11.63;8.33;;;;;;;28.52;47.04;100863.14;128381;1087;64350;-86
2021/07/14 10:47:49;;;;;;;9.50;8.27;;;;;;;28.52;47.07;100865.86;128321;1087;64166;-86
2021/07/14 10:50:18;;;;;;;8.90;7.87;;;;;;;28.51;47.11;100867.73;128308;1085;63961;-85
2021/07/14 10:52:44;;;;;;;10.78;8.45;;;;;;;28.51;47.18;100865.02;128403;1085;64185;-86
2021/07/14 10:55:16;;;;;;;9.30;8.00;;;;;;;28.51;47.18;100856.88;128338;1085;64109;-86
2021/07/14 10:57:45;;;;;;;11.83;9.07;;;;;;;28.51;47.02;100859.58;128376;1086;64268;-86
2021/07/14 11:00:15;;;;;;;12.70;8.93;;;;;;;28.51;47.34;100851.44;128369;1086;63974;-86
2021/07/14 11:02:52;;;;;;;10.87;8.80;;;;;;;28.50;47.22;100847.01;128357;1087;64336;-85
2021/07/14 11:05:45;;;;;;;12.37;8.20;;;;;;;28.50;47.17;100841.58;128374;1087;64371;-87
2021/07/14 11:08:42;;;;;;;10.77;8.40;;;;;;;28.51;47.14;100850.59;128243;1087;64170;-85
2021/07/14 11:11:24;;;;;;;11.60;8.50;;;;;;;28.50;47.39;100838.87;128381;1087;64316;-86
2021/07/14 11:14:19;;;;;;;9.90;8.43;;;;;;;28.50;47.49;100848.88;128391;1087;64198;-87
2021/07/14 11:16:57;;;;;;;9.47;8.17;;;;;;;28.50;47.05;100846.17;127904;1087;64163;-85
2021/07/14 11:19:27;;;;;;;9.93;8.78;;;;;;;28.50;47.20;100852.44;127953;1088;64042;-85
2021/07/14 11:22:00;;;;;;;10.00;8.57;;;;;;;28.51;47.23;100853.31;127912;1087;64019;-85
2021/07/14 11:24:50;;;;;;;11.27;9.37;;;;;;;28.50;47.08;100844.30;127920;1090;63635;-85
2021/07/14 11:27:45;;;;;;;9.50;7.97;;;;;;;28.49;47.33;100837.16;127905;1085;64307;-85
2021/07/14 11:30:32;;;;;;;10.43;8.43;;;;;;;28.50;47.28;100841.58;127705;1090;64128;-84
2021/07/14 11:33:00;;;;;;;9.80;8.47;;;;;;;28.50;47.25;100843.45;127302;1093;64259;-85
2021/07/14 11:35:49;;;;;;;12.40;8.55;;;;;;;28.50;47.57;100844.30;127258;1093;64168;-85
2021/07/14 11:38:54;;;;;;;9.90;8.73;;;;;;;28.50;47.30;100829.88;127236;1093;64303;-86
2021/07/14 11:41:28;;;;;;;9.10;7.97;;;;;;;28.50;47.25;100829.88;127338;1093;64291;-85
2021/07/14 11:43:56;;;;;;;11.00;8.80;;;;;;;28.51;47.34;100831.59;127280;1093;64130;-86